createdAt,value
2019-02-14T00:02:49.426Z,1.24
2019-02-14T00:06:54.571Z,1.19
2019-02-14T00:10:59.725Z,1.31
2019-02-14T00:15:05.229Z,1.23
2019-02-14T00:19:10.399Z,1.33
2019-02-14T00:23:15.478Z,1.22
2019-02-14T00:27:20.671Z,1.14
2019-02-14T00:31:25.778Z,1.03
2019-02-14T00:35:30.847Z,0.89
2019-02-14T00:39:35.857Z,1.08
2019-02-14T00:43:41.297Z,1.17
2019-02-14T00:47:46.363Z,1.10
2019-02-14T00:51:51.633Z,1.04
2019-02-14T00:55:56.840Z,0.98
2019-02-14T01:00:02.139Z,1.00
2019-02-14T01:04:07.258Z,0.91
2019-02-14T01:08:12.442Z,0.81
2019-02-14T01:12:17.559Z,0.60
2019-02-14T01:16:22.729Z,0.51
2019-02-14T01:20:27.786Z,0.50
2019-02-14T01:24:32.915Z,0.29
2019-02-14T01:28:37.970Z,0.29
2019-02-14T01:32:43.132Z,0.19
2019-02-14T01:36:48.244Z,0.41
2019-02-14T01:40:53.435Z,0.51
2019-02-14T01:44:58.523Z,0.52
2019-02-14T01:49:03.506Z,0.54
2019-02-14T01:53:08.597Z,0.53
2019-02-14T01:57:13.698Z,0.53
2019-02-14T02:01:18.777Z,0.66
2019-02-14T02:05:24.322Z,0.62
2019-02-14T02:09:32.192Z,0.64
2019-02-14T02:13:37.379Z,0.58
2019-02-14T02:17:43.463Z,0.55
2019-02-14T02:21:49.371Z,0.58
2019-02-14T02:25:54.810Z,0.40
2019-02-14T02:29:59.904Z,0.56
2019-02-14T02:34:05.104Z,0.48
2019-02-14T02:38:10.217Z,0.26
2019-02-14T02:42:15.640Z,0.03
2019-02-14T02:46:20.736Z,-0.10
2019-02-14T02:50:25.911Z,0.21
2019-02-14T02:54:31.126Z,0.24
2019-02-14T02:58:36.265Z,-0.04
2019-02-14T03:02:41.531Z,-0.17
2019-02-14T03:06:46.632Z,-0.01
2019-02-14T03:10:51.751Z,-0.07
2019-02-14T03:14:56.930Z,0.08
2019-02-14T03:19:02.206Z,0.16
2019-02-14T03:23:07.400Z,0.24
2019-02-14T03:27:12.545Z,-0.24
2019-02-14T03:31:17.692Z,-0.31
2019-02-14T03:35:22.837Z,-0.13
2019-02-14T03:39:27.932Z,-0.12
2019-02-14T03:43:33.032Z,-0.19
2019-02-14T03:47:38.165Z,-0.14
2019-02-14T03:51:43.322Z,-0.06
2019-02-14T03:55:48.493Z,-0.16
2019-02-14T03:59:53.605Z,-0.44
2019-02-14T04:03:58.809Z,-0.54
2019-02-14T04:08:03.887Z,-0.55
2019-02-14T04:12:09.086Z,-0.43
2019-02-14T04:16:14.181Z,-0.21
2019-02-14T04:20:19.401Z,-0.45
2019-02-14T04:24:24.624Z,-0.28
2019-02-14T04:28:29.761Z,-0.56
2019-02-14T04:32:34.893Z,-0.67
2019-02-14T04:36:40.179Z,-0.73
2019-02-14T04:40:45.303Z,-0.45
2019-02-14T04:44:50.610Z,-0.45
2019-02-14T04:48:55.708Z,-0.53
2019-02-14T04:53:00.720Z,-0.47
2019-02-14T04:57:05.799Z,-0.47
2019-02-14T05:01:10.969Z,-0.76
2019-02-14T05:05:16.095Z,-0.86
2019-02-14T05:09:21.289Z,-0.59
2019-02-14T05:13:26.493Z,-0.74
2019-02-14T05:17:31.644Z,-0.76
2019-02-14T05:21:36.796Z,-0.60
2019-02-14T05:25:41.963Z,-0.51
2019-02-14T05:29:47.083Z,-0.43
2019-02-14T05:33:52.230Z,-0.53
2019-02-14T05:37:57.557Z,-0.64
2019-02-14T05:42:03.524Z,-0.74
2019-02-14T05:46:08.687Z,-0.87
2019-02-14T05:50:14.001Z,-0.97
2019-02-14T05:54:19.186Z,-0.91
2019-02-14T05:58:24.730Z,-1.07
2019-02-14T06:02:29.922Z,-0.81
2019-02-14T06:06:35.095Z,-0.92
2019-02-14T06:10:40.504Z,-0.97
2019-02-14T06:14:45.718Z,-0.75
2019-02-14T06:18:51.844Z,-0.94
2019-02-14T06:22:56.998Z,-0.93
2019-02-14T06:27:02.139Z,-0.90
2019-02-14T06:31:07.285Z,-0.80
2019-02-14T06:35:12.449Z,-0.90
2019-02-14T06:39:17.593Z,-0.73
2019-02-14T06:43:22.718Z,-1.24
2019-02-14T06:47:27.894Z,-1.12
2019-02-14T06:51:33.033Z,-0.72
2019-02-14T06:55:38.502Z,-0.96
2019-02-14T06:59:43.591Z,-0.62
2019-02-14T07:03:48.789Z,-0.34
2019-02-14T07:07:54.207Z,-0.21
2019-02-14T07:11:59.358Z,-0.21
2019-02-14T07:16:04.561Z,-0.35
2019-02-14T07:20:11.580Z,-0.16
2019-02-14T07:24:16.737Z,0.21
2019-02-14T07:28:21.824Z,-0.64
2019-02-14T07:32:26.967Z,-0.37
2019-02-14T07:36:32.137Z,-0.48
2019-02-14T07:40:37.262Z,0.16
2019-02-14T07:44:42.471Z,0.13
2019-02-14T07:48:47.663Z,0.36
2019-02-14T07:52:53.738Z,0.45
2019-02-14T07:56:58.909Z,0.29
2019-02-14T08:01:04.281Z,0.34
2019-02-14T08:05:09.505Z,1.05
2019-02-14T08:09:14.642Z,1.39
2019-02-14T08:13:19.920Z,1.70
2019-02-14T08:17:25.026Z,1.75
2019-02-14T08:21:31.187Z,2.03
2019-02-14T08:25:36.365Z,2.48
2019-02-14T08:29:41.529Z,3.27
2019-02-14T08:33:46.625Z,2.70
2019-02-14T08:37:51.709Z,2.86
2019-02-14T08:41:56.903Z,3.79
2019-02-14T08:46:02.002Z,3.68
2019-02-14T08:50:07.716Z,4.91
2019-02-14T08:54:13.089Z,5.10
2019-02-14T08:58:18.166Z,5.73
2019-02-14T09:02:23.327Z,4.89
2019-02-14T09:06:28.450Z,4.97
2019-02-14T09:10:33.618Z,3.97
2019-02-14T09:14:38.782Z,4.49
2019-02-14T09:18:43.853Z,4.15
2019-02-14T09:22:48.989Z,4.88
2019-02-14T09:26:54.128Z,5.44
2019-02-14T09:30:59.520Z,5.28
2019-02-14T09:35:04.882Z,5.31
2019-02-14T09:39:09.962Z,6.40
2019-02-14T09:43:15.111Z,6.74
2019-02-14T09:47:20.276Z,6.84
2019-02-14T09:51:25.362Z,6.84
2019-02-14T09:55:30.454Z,7.41
2019-02-14T09:59:35.614Z,6.99
2019-02-14T10:03:40.798Z,7.31
2019-02-14T10:07:46.293Z,7.66
2019-02-14T10:11:51.473Z,8.25
2019-02-14T10:15:56.538Z,7.33
2019-02-14T10:20:01.711Z,7.35
2019-02-14T10:24:06.897Z,7.59
2019-02-14T10:28:12.075Z,7.13
2019-02-14T10:32:17.538Z,7.96
2019-02-14T10:36:22.686Z,8.79
2019-02-14T10:40:28.076Z,7.60
2019-02-14T10:44:33.418Z,7.37
2019-02-14T10:48:38.516Z,7.45
2019-02-14T10:52:43.756Z,7.93
2019-02-14T10:56:49.168Z,7.77
2019-02-14T11:00:54.310Z,8.36
2019-02-14T11:04:59.381Z,8.40
2019-02-14T11:09:05.716Z,8.28
2019-02-14T11:13:11.445Z,8.26
2019-02-14T11:17:16.722Z,7.92
2019-02-14T11:21:21.880Z,8.11
2019-02-14T11:25:29.565Z,8.13
2019-02-14T11:29:34.740Z,8.37
2019-02-14T11:33:39.887Z,8.38
2019-02-14T11:37:45.063Z,8.71
2019-02-14T11:41:50.152Z,9.48
2019-02-14T11:45:55.278Z,10.33
2019-02-14T11:50:00.468Z,10.94
2019-02-14T11:54:05.837Z,9.90
2019-02-14T11:58:11.095Z,10.21
2019-02-14T12:02:16.227Z,9.96
2019-02-14T12:06:21.396Z,11.10
2019-02-14T12:10:26.536Z,10.08
2019-02-14T12:14:31.950Z,10.51
2019-02-14T12:18:37.051Z,11.09
2019-02-14T12:22:46.852Z,11.09
2019-02-14T12:26:49.283Z,11.24
2019-02-14T12:30:54.421Z,11.54
2019-02-14T12:34:59.635Z,11.38
2019-02-14T12:39:09.114Z,11.92
2019-02-14T12:43:13.934Z,10.92
2019-02-14T12:47:19.024Z,10.79
2019-02-14T12:51:24.139Z,11.16
2019-02-14T12:55:29.353Z,10.79
2019-02-14T12:59:34.545Z,11.73
2019-02-14T13:03:39.655Z,12.05
2019-02-14T13:07:44.855Z,11.60
2019-02-14T13:11:50.121Z,10.96
2019-02-14T13:15:55.258Z,11.18
2019-02-14T13:20:00.457Z,11.72
2019-02-14T13:24:05.575Z,11.94
2019-02-14T13:28:10.806Z,12.80
2019-02-14T13:32:15.986Z,12.49
2019-02-14T13:36:21.189Z,13.22
2019-02-14T13:40:26.624Z,12.93
2019-02-14T13:44:31.840Z,14.10
2019-02-14T13:48:37.201Z,13.84
2019-02-14T13:52:42.335Z,13.84
2019-02-14T13:56:53.970Z,14.72
2019-02-14T14:00:54.397Z,16.25
2019-02-14T14:04:59.633Z,14.52
2019-02-14T14:09:09.022Z,15.82
2019-02-14T14:13:14.225Z,14.52
2019-02-14T14:17:19.341Z,15.42
2019-02-14T14:21:24.530Z,15.79
2019-02-14T14:25:29.629Z,17.10
2019-02-14T14:29:34.815Z,17.31
2019-02-14T14:33:39.967Z,15.92
2019-02-14T14:37:45.115Z,18.87
2019-02-14T14:41:51.531Z,16.50
2019-02-14T14:46:33.702Z,15.15
2019-02-14T14:50:38.786Z,15.21
2019-02-14T14:54:44.012Z,15.17
2019-02-14T14:58:49.446Z,14.53
2019-02-14T15:02:54.713Z,15.05
2019-02-14T15:06:59.832Z,14.99
2019-02-14T15:11:05.003Z,16.55
2019-02-14T15:15:10.115Z,15.05
2019-02-14T15:19:15.311Z,14.76
2019-02-14T15:23:20.472Z,14.56
2019-02-14T15:27:25.625Z,14.59
2019-02-14T15:31:31.792Z,13.98
2019-02-14T15:35:36.900Z,15.14
2019-02-14T15:39:42.100Z,16.71
2019-02-14T15:43:47.250Z,16.27
2019-02-14T15:47:52.629Z,16.50
2019-02-14T15:51:57.719Z,15.56
2019-02-14T15:56:03.442Z,15.06
2019-02-14T16:00:10.907Z,14.02
2019-02-14T16:04:16.154Z,13.55
2019-02-14T16:08:22.270Z,13.33
2019-02-14T16:12:28.321Z,13.20
2019-02-14T16:16:33.740Z,14.89
2019-02-14T16:20:40.370Z,14.23
2019-02-14T16:24:46.033Z,15.86
2019-02-14T16:28:51.410Z,16.33
2019-02-14T16:32:56.577Z,14.73
2019-02-14T16:37:01.961Z,12.81
2019-02-14T16:41:07.719Z,11.63
2019-02-14T16:45:12.855Z,11.33
2019-02-14T16:49:19.066Z,12.16
2019-02-14T16:53:24.296Z,11.43
2019-02-14T16:57:29.377Z,9.97
2019-02-14T17:01:34.502Z,9.78
2019-02-14T17:05:39.623Z,10.11
2019-02-14T17:09:44.878Z,9.31
2019-02-14T17:13:50.103Z,9.08
2019-02-14T17:17:55.198Z,9.38
2019-02-14T17:22:00.269Z,9.21
2019-02-14T17:26:05.500Z,8.89
2019-02-14T17:30:10.662Z,8.67
2019-02-14T17:34:15.862Z,8.65
2019-02-14T17:38:21.054Z,8.24
2019-02-14T17:42:26.149Z,7.69
2019-02-14T17:46:31.344Z,7.94
2019-02-14T17:50:36.405Z,7.56
2019-02-14T17:54:41.523Z,7.61
2019-02-14T17:58:49.657Z,7.49
2019-02-14T18:02:54.821Z,7.38
2019-02-14T18:06:59.910Z,7.37
2019-02-14T18:11:05.042Z,7.08
2019-02-14T18:15:11.357Z,6.64
2019-02-14T18:19:17.772Z,7.22
2019-02-14T18:23:22.901Z,7.28
2019-02-14T18:27:28.033Z,6.60
2019-02-14T18:31:33.314Z,6.60
2019-02-14T18:35:38.469Z,7.02
2019-02-14T18:39:43.871Z,6.85
2019-02-14T18:43:49.130Z,6.62
2019-02-14T18:47:54.371Z,6.46
2019-02-14T18:51:59.792Z,6.33
2019-02-14T18:56:04.953Z,6.69
2019-02-14T19:00:12.769Z,6.24
2019-02-14T19:04:17.969Z,6.08
2019-02-14T19:08:23.203Z,5.67
2019-02-14T19:12:28.443Z,5.63
2019-02-14T19:16:33.741Z,5.50
2019-02-14T19:20:38.891Z,5.43
2019-02-14T19:24:44.022Z,5.63
2019-02-14T19:28:49.271Z,6.05
2019-02-14T19:32:54.533Z,6.19
2019-02-14T19:37:00.934Z,5.40
2019-02-14T19:41:06.206Z,5.19
2019-02-14T19:45:11.502Z,4.97
2019-02-14T19:49:16.761Z,4.78
2019-02-14T19:53:22.177Z,5.15
2019-02-14T19:57:27.319Z,5.04
2019-02-14T20:01:32.320Z,4.83
2019-02-14T20:05:37.499Z,4.79
2019-02-14T20:09:42.635Z,4.88
2019-02-14T20:13:49.806Z,4.44
2019-02-14T20:17:54.588Z,4.57
2019-02-14T20:21:59.858Z,5.93
2019-02-14T20:26:05.950Z,6.24
2019-02-14T20:30:11.095Z,6.61
2019-02-14T20:34:16.260Z,6.61
2019-02-14T20:38:21.385Z,6.70
2019-02-14T20:42:26.546Z,6.64
2019-02-14T20:46:33.634Z,6.48
2019-02-14T20:50:38.898Z,6.62
2019-02-14T20:54:44.258Z,6.58
2019-02-14T20:58:49.586Z,6.54
2019-02-14T21:02:54.714Z,6.51
2019-02-14T21:07:00.048Z,6.34
2019-02-14T21:11:05.297Z,6.28
2019-02-14T21:15:10.466Z,6.23
2019-02-14T21:19:15.636Z,6.24
2019-02-14T21:23:20.796Z,6.17
2019-02-14T21:27:25.975Z,5.89
2019-02-14T21:31:31.103Z,5.54
2019-02-14T21:35:36.271Z,5.39
2019-02-14T21:39:41.423Z,5.28
2019-02-14T21:43:46.503Z,5.32
2019-02-14T21:47:51.645Z,5.09
2019-02-14T21:51:56.726Z,5.29
2019-02-14T21:56:01.938Z,5.51
2019-02-14T22:00:09.850Z,5.34
2019-02-14T22:04:15.972Z,4.73
2019-02-14T22:08:21.128Z,5.24
2019-02-14T22:12:40.058Z,5.22
2019-02-14T22:16:33.159Z,5.23
2019-02-14T22:20:38.322Z,5.37
2019-02-14T22:24:43.408Z,5.32
2019-02-14T22:28:48.505Z,5.11
2019-02-14T22:32:53.743Z,5.10
2019-02-14T22:36:58.976Z,4.62
2019-02-14T22:41:04.131Z,4.72
2019-02-14T22:45:09.934Z,4.89
2019-02-14T22:49:15.033Z,5.15
2019-02-14T22:53:20.368Z,5.02
2019-02-14T22:57:25.601Z,4.92
2019-02-14T23:01:30.853Z,4.89
2019-02-14T23:05:35.979Z,5.02
2019-02-14T23:09:41.180Z,5.04
2019-02-14T23:13:46.492Z,5.07
2019-02-14T23:17:52.383Z,5.02
2019-02-14T23:21:57.508Z,4.99
2019-02-14T23:26:02.693Z,4.87
2019-02-14T23:30:08.212Z,4.82
2019-02-14T23:34:13.666Z,4.69
2019-02-14T23:38:18.823Z,4.63
2019-02-14T23:42:23.975Z,4.71
2019-02-14T23:46:29.074Z,4.71
2019-02-14T23:50:34.319Z,4.58
2019-02-14T23:54:39.401Z,4.65
2019-02-14T23:58:44.564Z,4.48
